createdAt,value
2017-08-18T00:02:19.038Z,30.00
2017-08-18T00:04:46.552Z,27.23
2017-08-18T00:07:14.057Z,26.10
2017-08-18T00:15:27.699Z,29.70
2017-08-18T00:17:55.208Z,29.37
2017-08-18T00:20:22.716Z,29.37
2017-08-18T00:22:50.995Z,28.60
2017-08-18T00:25:18.506Z,28.50
2017-08-18T00:27:46.009Z,27.42
2017-08-18T00:30:14.283Z,31.53
2017-08-18T00:32:41.759Z,27.70
2017-08-18T00:35:09.260Z,29.57
2017-08-18T00:37:36.792Z,28.83
2017-08-18T00:40:04.280Z,29.60
2017-08-18T00:42:31.771Z,26.77
2017-08-18T00:44:59.283Z,27.50
2017-08-18T00:47:26.779Z,28.83
2017-08-18T00:49:54.276Z,27.87
2017-08-18T00:52:21.761Z,28.87
2017-08-18T00:54:49.252Z,28.23
2017-08-18T00:57:17.516Z,27.10
2017-08-18T00:59:45.039Z,27.90
2017-08-18T01:02:12.528Z,27.83
2017-08-18T01:04:40.019Z,29.87
2017-08-18T01:07:07.519Z,28.43
2017-08-18T01:09:35.025Z,32.53
2017-08-18T01:12:02.533Z,29.70
2017-08-18T01:14:30.017Z,28.97
2017-08-18T01:16:57.512Z,29.00
2017-08-18T01:19:25.005Z,29.10
2017-08-18T01:21:52.496Z,31.77
2017-08-18T01:24:20.022Z,32.70
2017-08-18T01:26:47.507Z,31.80
2017-08-18T01:29:14.999Z,32.60
2017-08-18T01:31:42.493Z,29.52
2017-08-18T01:34:09.984Z,28.52
2017-08-18T01:36:38.243Z,32.03
2017-08-18T01:39:05.743Z,30.30
2017-08-18T01:41:33.236Z,31.07
2017-08-18T01:44:00.726Z,30.83
2017-08-18T01:46:28.228Z,30.00
2017-08-18T01:48:55.725Z,32.40
2017-08-18T01:51:23.215Z,31.87
2017-08-18T01:53:51.476Z,29.77
2017-08-18T01:56:18.976Z,31.00
2017-08-18T01:58:46.487Z,34.17
2017-08-18T02:01:13.985Z,31.95
2017-08-18T02:03:41.476Z,32.83
2017-08-18T02:06:08.973Z,32.47
2017-08-18T02:08:36.472Z,32.72
2017-08-18T02:11:03.960Z,29.45
2017-08-18T02:13:31.451Z,33.95
2017-08-18T02:15:58.958Z,34.17
2017-08-18T02:18:26.448Z,36.95
2017-08-18T02:20:53.944Z,32.20
2017-08-18T02:23:21.444Z,33.55
2017-08-18T02:25:48.948Z,33.70
2017-08-18T02:28:16.471Z,36.58
2017-08-18T02:30:43.991Z,34.50
2017-08-18T02:33:11.483Z,33.60
2017-08-18T02:35:38.972Z,31.00
2017-08-18T02:38:07.247Z,29.40
2017-08-18T02:40:34.747Z,32.85
2017-08-18T02:43:02.241Z,28.67
2017-08-18T02:45:29.733Z,29.20
2017-08-18T02:47:57.239Z,29.00
2017-08-18T02:50:24.737Z,28.33
2017-08-18T02:52:52.231Z,29.08
2017-08-18T02:55:19.718Z,31.15
2017-08-18T02:57:47.195Z,28.43
2017-08-18T03:00:14.690Z,26.57
2017-08-18T03:02:42.180Z,28.03
2017-08-18T03:05:09.679Z,27.10
2017-08-18T03:07:37.167Z,28.63
2017-08-18T03:10:04.650Z,29.70
2017-08-18T03:12:32.152Z,27.70
2017-08-18T03:14:59.671Z,27.40
2017-08-18T03:17:27.160Z,26.57
2017-08-18T03:19:56.969Z,26.13
2017-08-18T03:22:24.465Z,23.10
2017-08-18T03:24:51.961Z,28.37
2017-08-18T03:27:19.460Z,25.98
2017-08-18T03:29:47.715Z,26.70
2017-08-18T03:32:15.203Z,25.03
2017-08-18T03:34:42.702Z,26.10
2017-08-18T03:37:10.197Z,27.33
2017-08-18T03:39:38.465Z,25.97
2017-08-18T03:42:05.967Z,28.80
2017-08-18T03:44:33.463Z,27.13
2017-08-18T03:47:00.972Z,27.85
2017-08-18T03:49:28.471Z,27.80
2017-08-18T03:51:55.989Z,27.27
2017-08-18T03:54:23.500Z,27.73
2017-08-18T03:56:51.006Z,28.23
2017-08-18T03:59:18.539Z,28.95
2017-08-18T04:01:46.816Z,28.52
2017-08-18T04:04:14.318Z,28.75
2017-08-18T04:06:41.821Z,29.70
2017-08-18T04:09:09.314Z,31.77
2017-08-18T04:11:36.819Z,30.37
2017-08-18T04:14:04.312Z,28.87
2017-08-18T04:16:32.573Z,29.80
2017-08-18T04:19:00.848Z,26.85
2017-08-18T04:21:29.120Z,29.52
2017-08-18T04:23:57.384Z,32.28
2017-08-18T04:26:24.908Z,32.97
2017-08-18T04:28:52.397Z,29.80
2017-08-18T04:31:19.897Z,31.87
2017-08-18T04:33:47.407Z,29.58
2017-08-18T04:36:14.936Z,31.60
2017-08-18T04:38:42.441Z,28.15
2017-08-18T04:41:09.942Z,31.30
2017-08-18T04:43:37.443Z,26.23
2017-08-18T04:46:04.948Z,27.80
2017-08-18T04:48:32.449Z,27.80
2017-08-18T04:50:59.941Z,29.05
2017-08-18T04:53:28.195Z,29.50
2017-08-18T04:55:55.696Z,28.08
2017-08-18T04:58:23.184Z,28.60
2017-08-18T05:00:50.671Z,26.23
2017-08-18T05:03:18.176Z,27.27
2017-08-18T05:05:45.688Z,27.87
2017-08-18T05:08:13.173Z,25.70
2017-08-18T05:10:40.684Z,26.57
2017-08-18T05:13:08.183Z,27.90
2017-08-18T05:15:35.733Z,27.00
2017-08-18T05:18:04.031Z,26.50
2017-08-18T05:20:31.519Z,24.97
2017-08-18T05:22:59.005Z,27.00
2017-08-18T05:25:26.489Z,28.53
2017-08-18T05:27:54.750Z,26.93
2017-08-18T05:30:22.239Z,26.43
2017-08-18T05:32:49.728Z,28.70
2017-08-18T05:35:17.203Z,26.20
2017-08-18T05:37:44.703Z,26.70
2017-08-18T05:40:12.952Z,27.10
2017-08-18T05:42:40.444Z,24.13
2017-08-18T05:45:07.936Z,25.33
2017-08-18T05:47:35.427Z,29.53
2017-08-18T05:50:02.907Z,28.03
2017-08-18T05:53:08.250Z,27.30
2017-08-18T05:55:36.530Z,24.93
2017-08-18T05:58:04.772Z,22.93
2017-08-18T06:00:32.267Z,25.20
2017-08-18T06:02:59.764Z,25.93
2017-08-18T06:05:27.264Z,30.80
2017-08-18T06:07:54.756Z,25.97
2017-08-18T06:10:22.243Z,23.77
2017-08-18T06:12:49.740Z,25.27
2017-08-18T06:15:18.002Z,24.00
2017-08-18T06:17:45.492Z,23.57
2017-08-18T06:20:12.991Z,25.90
2017-08-18T06:22:40.492Z,26.00
2017-08-18T06:25:08.760Z,21.57
2017-08-18T06:27:36.280Z,22.07
2017-08-18T06:30:03.772Z,20.10
2017-08-18T06:32:31.284Z,23.13
2017-08-18T06:34:58.768Z,24.30
2017-08-18T06:37:26.256Z,23.87
2017-08-18T06:39:53.759Z,25.53
2017-08-18T06:42:21.247Z,23.97
2017-08-18T06:44:48.733Z,24.27
2017-08-18T06:47:16.220Z,24.10
2017-08-18T06:49:43.720Z,24.50
2017-08-18T06:52:11.203Z,24.27
2017-08-18T06:54:38.687Z,23.33
2017-08-18T06:57:06.179Z,22.57
2017-08-18T06:59:33.669Z,26.50
2017-08-18T07:02:01.928Z,26.30
2017-08-18T07:04:29.424Z,23.57
2017-08-18T07:06:56.915Z,22.27
2017-08-18T07:09:24.408Z,21.70
2017-08-18T07:11:51.888Z,20.60
2017-08-18T07:14:19.373Z,20.77
2017-08-18T07:16:46.860Z,20.33
2017-08-18T07:19:14.344Z,19.07
2017-08-18T07:21:41.819Z,17.17
2017-08-18T07:24:09.308Z,17.30
2017-08-18T07:26:36.792Z,20.20
2017-08-18T07:29:04.290Z,17.30
2017-08-18T07:31:32.539Z,16.33
2017-08-18T07:34:00.028Z,16.53
2017-08-18T07:36:27.527Z,14.90
2017-08-18T07:38:55.051Z,16.67
2017-08-18T07:41:22.647Z,13.63
2017-08-18T07:43:50.192Z,13.63
2017-08-18T07:46:17.688Z,12.77
2017-08-18T07:48:45.175Z,12.00
2017-08-18T07:51:12.669Z,10.60
2017-08-18T07:53:40.168Z,11.67
2017-08-18T07:56:07.664Z,11.27
2017-08-18T07:58:35.148Z,10.63
2017-08-18T08:01:02.631Z,9.50
2017-08-18T08:03:30.903Z,10.13
2017-08-18T08:05:58.387Z,9.50
2017-08-18T08:08:25.871Z,10.30
2017-08-18T08:10:53.383Z,10.93
2017-08-18T08:13:20.880Z,10.00
2017-08-18T08:15:48.413Z,10.13
2017-08-18T08:18:16.692Z,9.43
2017-08-18T08:20:44.184Z,9.40
2017-08-18T08:23:11.665Z,9.50
2017-08-18T08:25:39.773Z,10.20
2017-08-18T08:28:07.269Z,9.87
2017-08-18T08:30:34.743Z,10.03
2017-08-18T08:33:02.249Z,10.90
2017-08-18T08:35:30.500Z,8.50
2017-08-18T08:37:57.984Z,11.00
2017-08-18T08:40:26.264Z,9.50
2017-08-18T08:42:53.765Z,10.03
2017-08-18T08:45:21.259Z,9.77
2017-08-18T08:47:48.776Z,8.90
2017-08-18T08:50:16.264Z,8.50
2017-08-18T08:52:43.752Z,9.37
2017-08-18T08:55:12.024Z,9.30
2017-08-18T08:57:40.299Z,9.47
2017-08-18T09:00:08.588Z,9.90
2017-08-18T09:02:36.843Z,9.87
2017-08-18T09:05:04.377Z,8.43
2017-08-18T09:07:31.854Z,8.73
2017-08-18T09:09:59.334Z,8.57
2017-08-18T09:12:27.637Z,8.50
2017-08-18T09:14:55.123Z,8.50
2017-08-18T09:17:22.646Z,8.57
2017-08-18T09:19:50.161Z,9.20
2017-08-18T09:22:17.652Z,8.07
2017-08-18T09:24:45.179Z,7.93
2017-08-18T09:27:12.677Z,8.53
2017-08-18T09:29:40.167Z,8.20
2017-08-18T09:32:07.671Z,9.20
2017-08-18T09:34:35.156Z,9.20
2017-08-18T09:37:02.671Z,8.77
2017-08-18T09:39:30.151Z,9.03
2017-08-18T09:41:57.658Z,9.73
2017-08-18T09:44:25.144Z,9.17
2017-08-18T09:46:52.645Z,9.67
2017-08-18T09:49:31.892Z,8.93
2017-08-18T09:52:11.195Z,10.17
2017-08-18T09:54:50.565Z,11.23
2017-08-18T09:57:29.900Z,12.37
2017-08-18T09:59:57.412Z,12.97
2017-08-18T10:02:24.903Z,12.60
2017-08-18T10:04:52.403Z,14.33
2017-08-18T10:07:19.894Z,14.07
2017-08-18T10:09:47.383Z,11.93
2017-08-18T10:12:14.869Z,14.00
2017-08-18T10:14:42.353Z,12.20
2017-08-18T10:17:09.840Z,13.23
2017-08-18T10:19:37.337Z,13.83
2017-08-18T10:22:04.832Z,12.87
2017-08-18T10:24:33.098Z,13.50
2017-08-18T10:27:00.585Z,13.40
2017-08-18T10:29:28.067Z,12.50
2017-08-18T10:31:55.556Z,14.10
2017-08-18T10:34:23.055Z,14.30
2017-08-18T10:36:50.563Z,14.90
2017-08-18T10:39:18.053Z,14.93
2017-08-18T10:41:45.535Z,14.63
2017-08-18T10:44:13.017Z,14.63
2017-08-18T10:46:40.503Z,15.10
2017-08-18T10:49:07.991Z,15.73
2017-08-18T10:51:35.480Z,15.23
2017-08-18T10:54:03.028Z,14.43
2017-08-18T10:56:30.537Z,14.67
2017-08-18T10:58:58.040Z,14.53
2017-08-18T11:01:25.565Z,15.27
2017-08-18T11:03:53.091Z,14.87
2017-08-18T11:06:20.606Z,15.40
2017-08-18T11:08:48.092Z,16.40
2017-08-18T11:11:15.584Z,15.20
2017-08-18T11:13:43.069Z,16.20
2017-08-18T11:16:10.577Z,16.00
2017-08-18T11:18:38.070Z,18.07
2017-08-18T11:21:06.319Z,18.37
2017-08-18T11:23:33.836Z,18.00
2017-08-18T11:26:01.319Z,17.80
2017-08-18T11:28:28.806Z,17.50
2017-08-18T11:30:56.300Z,18.00
2017-08-18T11:33:23.792Z,18.47
2017-08-18T11:35:51.280Z,18.40
2017-08-18T11:38:18.788Z,17.00
2017-08-18T11:40:46.285Z,21.70
2017-08-18T11:43:13.785Z,20.57
2017-08-18T11:45:41.264Z,18.43
2017-08-18T11:48:08.783Z,21.03
2017-08-18T11:50:36.277Z,22.23
2017-08-18T11:53:03.784Z,20.90
2017-08-18T11:55:31.274Z,21.63
2017-08-18T11:57:58.800Z,22.77
2017-08-18T12:00:27.071Z,22.60
2017-08-18T12:02:54.556Z,21.07
2017-08-18T12:05:22.048Z,24.37
2017-08-18T12:07:50.023Z,22.70
2017-08-18T12:10:17.604Z,20.20
2017-08-18T12:12:45.101Z,22.37
2017-08-18T12:15:12.604Z,23.10
2017-08-18T12:17:40.096Z,23.20
2017-08-18T12:20:08.359Z,25.10
2017-08-18T12:22:35.856Z,25.43
2017-08-18T12:25:03.364Z,24.63
2017-08-18T12:27:30.892Z,24.50
2017-08-18T12:29:58.380Z,25.80
2017-08-18T12:32:25.872Z,25.27
2017-08-18T12:34:54.135Z,24.83
2017-08-18T12:37:21.624Z,20.57
2017-08-18T12:39:49.112Z,22.43
2017-08-18T12:42:16.608Z,21.93
2017-08-18T12:44:44.092Z,23.80
2017-08-18T12:47:11.594Z,19.43
2017-08-18T12:49:39.079Z,20.73
2017-08-18T12:52:06.575Z,19.20
2017-08-18T12:54:34.063Z,19.30
2017-08-18T12:57:01.575Z,20.03
2017-08-18T12:59:29.912Z,19.30
2017-08-18T13:01:57.405Z,19.87
2017-08-18T13:04:25.656Z,22.60
2017-08-18T13:06:53.144Z,16.77
2017-08-18T13:09:20.640Z,20.03
2017-08-18T13:11:48.128Z,20.37
2017-08-18T13:14:15.615Z,19.03
2017-08-18T13:16:43.107Z,17.70
2017-08-18T13:19:10.596Z,17.47
2017-08-18T13:21:38.083Z,17.27
2017-08-18T13:24:06.340Z,16.17
2017-08-18T13:26:33.830Z,15.37
2017-08-18T13:29:01.314Z,17.40
2017-08-18T13:31:28.797Z,16.33
2017-08-18T13:33:56.296Z,14.37
2017-08-18T13:36:23.780Z,14.03
2017-08-18T13:38:51.300Z,12.97
2017-08-18T13:41:19.552Z,12.90
2017-08-18T13:43:47.064Z,12.70
2017-08-18T13:46:14.560Z,13.30
2017-08-18T13:48:42.075Z,12.17
2017-08-18T13:51:09.568Z,11.33
2017-08-18T13:53:37.060Z,10.30
2017-08-18T13:56:05.314Z,11.40
2017-08-18T13:58:32.804Z,10.57
2017-08-18T14:01:01.055Z,11.07
2017-08-18T14:03:28.608Z,11.00
2017-08-18T14:05:56.104Z,9.63
2017-08-18T14:08:23.590Z,8.67
2017-08-18T14:10:51.073Z,9.70
2017-08-18T14:13:18.564Z,8.20
2017-08-18T14:15:46.832Z,7.50
2017-08-18T14:18:15.085Z,7.43
2017-08-18T14:20:42.579Z,8.27
2017-08-18T14:23:10.060Z,7.23
2017-08-18T14:25:43.176Z,8.00
2017-08-18T14:28:10.680Z,7.53
2017-08-18T14:30:38.356Z,7.80
2017-08-18T14:33:06.108Z,7.27
2017-08-18T14:35:33.592Z,8.30
2017-08-18T14:38:01.064Z,8.73
2017-08-18T14:40:28.545Z,8.33
2017-08-18T14:42:56.031Z,9.33
2017-08-18T14:45:23.507Z,8.03
2017-08-18T14:47:50.991Z,8.00
2017-08-18T14:50:18.466Z,8.50
2017-08-18T14:52:45.945Z,8.60
2017-08-18T14:55:13.438Z,8.53
2017-08-18T14:57:40.929Z,9.50
2017-08-18T15:00:08.428Z,8.70
2017-08-18T15:02:35.924Z,8.70
2017-08-18T15:05:03.408Z,8.30
2017-08-18T15:07:30.932Z,7.30
2017-08-18T15:09:58.416Z,7.70
2017-08-18T15:12:25.906Z,8.13
2017-08-18T15:14:54.478Z,8.33
2017-08-18T15:17:21.972Z,8.37
2017-08-18T15:19:49.649Z,8.60
2017-08-18T15:22:17.143Z,7.73
2017-08-18T15:24:44.631Z,8.83
2017-08-18T15:27:13.739Z,8.30
2017-08-18T15:29:41.211Z,8.33
2017-08-18T15:32:08.760Z,7.83
2017-08-18T15:34:36.256Z,7.83
2017-08-18T15:37:03.749Z,8.67
2017-08-18T15:39:31.274Z,7.97
2017-08-18T15:41:58.784Z,8.73
2017-08-18T15:44:26.262Z,8.03
2017-08-18T15:46:53.744Z,9.93
2017-08-18T15:49:22.096Z,9.90
2017-08-18T15:51:49.588Z,11.30
2017-08-18T15:54:17.086Z,11.03
2017-08-18T15:56:44.577Z,11.57
2017-08-18T15:59:12.539Z,10.93
2017-08-18T16:01:40.020Z,12.50
2017-08-18T16:04:07.524Z,11.07
2017-08-18T16:06:35.787Z,13.83
2017-08-18T16:09:03.311Z,10.60
2017-08-18T16:11:30.795Z,11.90
2017-08-18T16:13:58.300Z,11.70
2017-08-18T16:16:25.799Z,11.50
2017-08-18T16:18:53.288Z,10.90
2017-08-18T16:21:21.561Z,9.33
2017-08-18T16:23:49.808Z,11.50
2017-08-18T16:26:17.309Z,10.33
2017-08-18T16:28:44.824Z,10.53
2017-08-18T16:31:12.336Z,10.87
2017-08-18T16:33:39.825Z,9.93
2017-08-18T16:36:07.373Z,10.27
2017-08-18T16:38:34.865Z,11.43
2017-08-18T16:41:02.367Z,9.47
2017-08-18T16:43:29.847Z,9.70
2017-08-18T16:45:57.355Z,9.63
2017-08-18T16:48:24.863Z,11.30
2017-08-18T16:50:52.372Z,10.60
2017-08-18T16:53:20.627Z,10.00
2017-08-18T16:55:48.116Z,9.90
2017-08-18T16:58:15.617Z,12.13
2017-08-18T17:00:43.135Z,10.67
2017-08-18T17:03:10.628Z,10.53
2017-08-18T17:05:38.143Z,11.20
2017-08-18T17:08:05.638Z,11.73
2017-08-18T17:10:33.141Z,12.00
2017-08-18T17:13:00.672Z,12.93
2017-08-18T17:15:28.160Z,13.40
2017-08-18T17:17:55.652Z,12.77
2017-08-18T17:20:23.139Z,13.33
2017-08-18T17:22:50.676Z,15.03
2017-08-18T17:25:18.480Z,14.30
2017-08-18T17:27:46.165Z,15.10
2017-08-18T17:30:13.673Z,17.23
2017-08-18T17:32:41.166Z,16.60
2017-08-18T17:35:09.340Z,16.40
2017-08-18T17:37:37.086Z,17.07
2017-08-18T17:40:04.707Z,19.17
2017-08-18T17:42:32.816Z,19.10
2017-08-18T17:45:00.367Z,20.07
2017-08-18T17:47:27.904Z,19.80
2017-08-18T17:49:56.218Z,22.03
2017-08-18T17:52:23.743Z,23.03
2017-08-18T17:54:51.923Z,20.50
2017-08-18T17:57:19.545Z,19.67
2017-08-18T17:59:47.811Z,21.70
2017-08-18T18:02:15.368Z,22.60
2017-08-18T18:04:42.887Z,22.60
2017-08-18T18:07:10.375Z,21.03
2017-08-18T18:09:37.867Z,22.93
2017-08-18T18:12:05.367Z,22.40
2017-08-18T18:14:32.875Z,22.80
2017-08-18T18:17:00.387Z,22.33
2017-08-18T18:19:27.908Z,25.80
2017-08-18T18:21:55.408Z,21.57
2017-08-18T18:24:22.918Z,26.17
2017-08-18T18:26:50.443Z,23.20
2017-08-18T18:29:17.966Z,24.43
2017-08-18T18:31:45.539Z,23.77
2017-08-18T18:34:13.282Z,37.77
2017-08-18T18:36:40.846Z,22.43
2017-08-18T18:39:08.368Z,22.80
2017-08-18T18:41:35.872Z,22.47
2017-08-18T18:44:04.384Z,22.13
2017-08-18T18:46:31.883Z,22.00
2017-08-18T18:48:59.403Z,23.60
2017-08-18T18:51:26.912Z,21.10
2017-08-18T18:53:54.409Z,21.70
2017-08-18T18:56:22.957Z,22.90
2017-08-18T18:58:50.684Z,20.40
2017-08-18T19:01:20.171Z,17.37
2017-08-18T19:03:48.324Z,15.83
2017-08-18T19:06:16.101Z,11.70
2017-08-18T19:08:44.459Z,10.83
2017-08-18T19:11:12.051Z,7.05
2017-08-18T19:13:39.611Z,6.18
2017-08-18T19:16:08.155Z,5.43
2017-08-18T19:18:36.785Z,4.95
2017-08-18T19:21:05.185Z,5.20
2017-08-18T19:23:42.206Z,3.33
2017-08-18T19:26:16.695Z,3.65
2017-08-18T19:28:54.819Z,3.08
2017-08-18T19:31:26.836Z,3.65
2017-08-18T19:36:57.293Z,2.85
2017-08-18T19:54:01.431Z,3.72
2017-08-18T19:56:30.462Z,3.42
2017-08-18T19:58:58.523Z,3.55
2017-08-18T20:01:26.037Z,3.55
2017-08-18T20:03:53.567Z,3.75
2017-08-18T20:06:21.829Z,3.83
2017-08-18T20:08:49.344Z,3.80
2017-08-18T20:11:16.837Z,3.95
2017-08-18T20:13:44.394Z,4.18
2017-08-18T20:16:12.946Z,4.07
2017-08-18T20:18:40.444Z,4.43
2017-08-18T20:21:07.942Z,4.35
2017-08-18T20:23:35.457Z,4.40
2017-08-18T20:26:03.040Z,4.12
2017-08-18T20:28:30.556Z,4.53
2017-08-18T20:30:58.078Z,4.75
2017-08-18T20:33:26.516Z,4.80
2017-08-18T20:35:56.836Z,4.40
2017-08-18T20:38:24.354Z,4.25
2017-08-18T20:40:51.865Z,4.22
2017-08-18T20:43:20.147Z,4.70
2017-08-18T20:45:48.423Z,4.60
2017-08-18T20:48:16.748Z,5.30
2017-08-18T20:50:44.278Z,5.55
2017-08-18T20:53:11.780Z,4.82
2017-08-18T20:55:39.410Z,5.03
2017-08-18T20:58:06.948Z,5.53
2017-08-18T21:00:35.704Z,5.97
2017-08-18T21:03:05.197Z,6.30
2017-08-18T21:05:33.674Z,5.93
2017-08-18T21:08:01.181Z,6.93
2017-08-18T21:10:28.688Z,6.25
2017-08-18T21:12:56.300Z,6.47
2017-08-18T21:15:23.807Z,8.07
2017-08-18T21:17:51.310Z,8.75
2017-08-18T21:20:18.820Z,7.50
2017-08-18T21:22:46.328Z,8.80
2017-08-18T21:25:13.852Z,8.20
2017-08-18T21:27:41.378Z,8.77
2017-08-18T21:30:09.897Z,8.65
2017-08-18T21:32:37.425Z,9.10
2017-08-18T21:35:04.960Z,11.57
2017-08-18T21:37:32.538Z,12.07
2017-08-18T21:40:00.080Z,10.80
2017-08-18T21:42:27.620Z,11.32
2017-08-18T21:44:55.138Z,11.63
2017-08-18T21:47:23.001Z,12.90
2017-08-18T21:49:50.583Z,12.68
2017-08-18T21:52:18.222Z,13.02
2017-08-18T21:54:45.771Z,13.05
2017-08-18T21:57:13.305Z,13.55
2017-08-18T21:59:40.849Z,15.35
2017-08-18T22:02:08.542Z,14.48
2017-08-18T22:04:36.074Z,14.27
2017-08-18T22:07:03.836Z,14.30
2017-08-18T22:09:31.409Z,14.82
2017-08-18T22:11:58.932Z,14.27
2017-08-18T22:14:26.478Z,15.18
2017-08-18T22:16:54.021Z,14.75
2017-08-18T22:19:21.532Z,15.68
2017-08-18T22:21:49.094Z,15.23
2017-08-18T22:24:18.705Z,16.00
2017-08-18T22:26:46.298Z,17.67
2017-08-18T22:29:14.517Z,18.90
2017-08-18T22:31:42.078Z,16.87
2017-08-18T22:34:09.589Z,17.58
2017-08-18T22:36:37.131Z,17.33
2017-08-18T22:39:04.712Z,19.30
2017-08-18T22:41:32.271Z,18.75
2017-08-18T22:43:59.787Z,19.17
2017-08-18T22:46:27.308Z,18.05
2017-08-18T22:48:54.884Z,22.52
2017-08-18T22:51:22.494Z,20.40
2017-08-18T22:53:50.097Z,19.55
2017-08-18T22:56:17.603Z,21.70
2017-08-18T22:58:45.149Z,24.37
2017-08-18T23:01:12.713Z,24.33
2017-08-18T23:03:40.261Z,25.55
2017-08-18T23:06:07.813Z,24.10
2017-08-18T23:08:35.885Z,25.23
2017-08-18T23:11:03.508Z,25.58
2017-08-18T23:13:31.038Z,28.80
2017-08-18T23:15:58.557Z,30.17
2017-08-18T23:18:26.122Z,26.70
2017-08-18T23:20:53.668Z,29.23
2017-08-18T23:23:21.243Z,27.65
2017-08-18T23:25:48.748Z,28.60
2017-08-18T23:28:16.247Z,28.80
2017-08-18T23:30:43.744Z,29.75
2017-08-18T23:33:11.236Z,26.27
2017-08-18T23:35:38.732Z,29.48
2017-08-18T23:38:06.227Z,25.88
2017-08-18T23:40:33.724Z,26.23
2017-08-18T23:43:01.245Z,25.80
2017-08-18T23:45:28.771Z,26.23
2017-08-18T23:47:56.299Z,27.70
2017-08-18T23:50:23.800Z,26.20
2017-08-18T23:52:51.312Z,27.23
2017-08-18T23:55:18.812Z,29.55
2017-08-18T23:57:46.306Z,27.17
